createdAt,value
2023-06-15T00:02:53.463Z,3.37
2023-06-15T00:05:55.774Z,3.53
2023-06-15T00:08:58.330Z,3.77
2023-06-15T00:12:00.476Z,3.20
2023-06-15T00:15:03.046Z,3.23
2023-06-15T00:18:07.049Z,3.37
2023-06-15T00:21:09.830Z,3.10
2023-06-15T00:24:12.015Z,3.40
2023-06-15T00:27:14.139Z,3.40
2023-06-15T00:30:16.809Z,3.80
2023-06-15T00:33:18.992Z,3.53
2023-06-15T00:36:21.026Z,3.67
2023-06-15T00:39:23.070Z,3.57
2023-06-15T00:42:25.250Z,3.20
2023-06-15T00:45:27.419Z,3.80
2023-06-15T00:48:31.230Z,3.30
2023-06-15T00:51:35.825Z,3.53
2023-06-15T00:54:40.279Z,3.43
2023-06-15T00:57:50.838Z,3.57
2023-06-15T01:00:54.981Z,4.07
2023-06-15T01:04:01.421Z,3.30
2023-06-15T01:07:05.785Z,3.50
2023-06-15T01:10:12.298Z,3.17
2023-06-15T01:13:20.569Z,3.10
2023-06-15T01:16:28.595Z,3.17
2023-06-15T01:19:41.457Z,3.27
2023-06-15T01:23:20.546Z,3.53
2023-06-15T01:26:25.629Z,3.47
2023-06-15T01:29:28.974Z,3.40
2023-06-15T01:32:32.654Z,3.80
2023-06-15T01:35:34.857Z,3.70
2023-06-15T01:38:38.158Z,3.53
2023-06-15T01:41:40.217Z,3.77
2023-06-15T01:44:42.673Z,3.23
2023-06-15T01:47:45.222Z,3.70
2023-06-15T01:50:47.290Z,3.90
2023-06-15T01:53:49.333Z,3.50
2023-06-15T01:56:52.268Z,3.80
2023-06-15T01:59:55.724Z,3.10
2023-06-15T02:02:57.873Z,3.50
2023-06-15T02:05:59.892Z,3.57
2023-06-15T02:09:02.101Z,3.23
2023-06-15T02:12:04.561Z,3.40
2023-06-15T02:15:07.322Z,2.90
2023-06-15T02:18:16.333Z,3.50
2023-06-15T02:21:18.372Z,3.63
2023-06-15T02:24:21.544Z,3.23
2023-06-15T02:27:23.572Z,3.43
2023-06-15T02:30:28.998Z,3.70
2023-06-15T02:33:30.985Z,3.67
2023-06-15T02:36:36.364Z,3.43
2023-06-15T02:39:38.505Z,3.27
2023-06-15T02:42:41.085Z,3.23
2023-06-15T02:45:43.283Z,3.50
2023-06-15T02:48:45.818Z,3.50
2023-06-15T02:51:47.903Z,3.63
2023-06-15T02:54:49.939Z,3.10
2023-06-15T02:57:53.356Z,3.40
2023-06-15T03:00:56.037Z,3.60
2023-06-15T03:03:57.959Z,3.80
2023-06-15T03:07:00.879Z,3.67
2023-06-15T03:10:03.408Z,3.60
2023-06-15T03:13:05.525Z,3.60
2023-06-15T03:16:08.764Z,4.40
2023-06-15T03:19:10.819Z,3.23
2023-06-15T03:22:12.791Z,4.20
2023-06-15T03:25:15.641Z,3.30
2023-06-15T03:28:18.365Z,3.33
2023-06-15T03:31:20.911Z,3.83
2023-06-15T03:34:23.482Z,3.43
2023-06-15T03:37:26.332Z,3.67
2023-06-15T03:40:31.566Z,4.30
2023-06-15T03:43:33.582Z,3.57
2023-06-15T03:46:35.696Z,3.57
2023-06-15T03:49:37.777Z,3.40
2023-06-15T03:52:39.934Z,3.43
2023-06-15T03:55:42.016Z,3.50
2023-06-15T03:58:43.911Z,3.13
2023-06-15T04:01:45.987Z,3.60
2023-06-15T04:04:47.999Z,3.77
2023-06-15T04:07:50.102Z,2.90
2023-06-15T04:10:52.256Z,3.30
2023-06-15T04:13:54.297Z,3.60
2023-06-15T04:16:56.352Z,3.83
2023-06-15T04:19:58.947Z,3.77
2023-06-15T04:23:00.886Z,3.50
2023-06-15T04:26:04.629Z,4.20
2023-06-15T04:29:07.358Z,3.67
2023-06-15T04:32:09.379Z,3.80
2023-06-15T04:35:19.332Z,3.70
2023-06-15T04:38:22.558Z,3.80
2023-06-15T04:41:25.923Z,4.07
2023-06-15T04:44:28.384Z,4.00
2023-06-15T04:47:30.452Z,4.20
2023-06-15T04:50:32.490Z,4.10
2023-06-15T04:53:34.496Z,3.33
2023-06-15T04:56:36.936Z,3.67
2023-06-15T04:59:39.941Z,3.40
2023-06-15T05:02:42.167Z,3.57
2023-06-15T05:05:44.326Z,3.63
2023-06-15T05:08:46.768Z,3.23
2023-06-15T05:11:49.329Z,3.53
2023-06-15T05:14:52.124Z,3.07
2023-06-15T05:17:54.688Z,2.97
2023-06-15T05:20:57.323Z,3.17
2023-06-15T05:23:59.472Z,3.20
2023-06-15T05:27:04.090Z,3.77
2023-06-15T05:30:12.996Z,3.30
2023-06-15T05:33:15.094Z,3.60
2023-06-15T05:36:29.860Z,3.43
2023-06-15T05:39:37.277Z,3.70
2023-06-15T05:42:39.577Z,2.87
2023-06-15T05:45:41.596Z,3.63
2023-06-15T05:48:43.651Z,3.90
2023-06-15T05:51:46.956Z,3.40
2023-06-15T05:54:48.992Z,4.10
2023-06-15T05:57:51.270Z,3.50
2023-06-15T06:00:53.253Z,3.30
2023-06-15T06:03:55.267Z,4.43
2023-06-15T06:06:57.795Z,3.93
2023-06-15T06:09:59.977Z,3.30
2023-06-15T06:13:02.234Z,3.80
2023-06-15T06:16:04.609Z,3.57
2023-06-15T06:19:06.633Z,3.30
2023-06-15T06:22:08.629Z,3.40
2023-06-15T06:25:10.714Z,3.33
2023-06-15T06:28:13.263Z,4.40
2023-06-15T06:31:15.348Z,3.47
2023-06-15T06:34:17.381Z,3.70
2023-06-15T06:37:19.365Z,3.83
2023-06-15T06:40:21.847Z,3.33
2023-06-15T06:43:23.793Z,3.60
2023-06-15T06:46:25.963Z,3.53
2023-06-15T06:49:28.834Z,3.57
2023-06-15T06:52:30.886Z,3.50
2023-06-15T06:55:32.978Z,3.13
2023-06-15T06:58:35.087Z,3.87
2023-06-15T07:01:37.755Z,3.77
2023-06-15T07:04:41.180Z,3.77
2023-06-15T07:07:43.205Z,3.90
2023-06-15T07:10:45.274Z,3.90
2023-06-15T07:13:47.438Z,4.00
2023-06-15T07:16:49.466Z,4.10
2023-06-15T07:19:51.983Z,4.27
2023-06-15T07:22:54.065Z,4.10
2023-06-15T07:25:58.279Z,3.90
2023-06-15T07:29:01.754Z,3.87
2023-06-15T07:32:03.962Z,4.20
2023-06-15T07:35:06.337Z,3.83
2023-06-15T07:38:08.530Z,3.80
2023-06-15T07:41:10.617Z,3.90
2023-06-15T07:44:13.849Z,3.95
2023-06-15T07:47:15.879Z,3.60
2023-06-15T07:50:18.407Z,3.55
2023-06-15T07:53:20.866Z,3.60
2023-06-15T07:56:22.861Z,3.53
2023-06-15T07:59:25.083Z,3.30
2023-06-15T08:02:27.223Z,3.25
2023-06-15T08:05:29.352Z,3.30
2023-06-15T08:08:31.423Z,3.20
2023-06-15T08:11:34.142Z,3.38
2023-06-15T08:14:37.860Z,3.50
2023-06-15T08:17:39.855Z,3.42
2023-06-15T08:20:41.838Z,3.25
2023-06-15T08:23:43.826Z,3.25
2023-06-15T08:26:47.059Z,3.20
2023-06-15T08:29:49.822Z,3.40
2023-06-15T08:32:52.607Z,3.33
2023-06-15T08:35:54.656Z,3.97
2023-06-15T08:38:56.791Z,3.15
2023-06-15T08:41:59.146Z,3.78
2023-06-15T08:45:05.426Z,3.60
2023-06-15T08:48:09.355Z,3.65
2023-06-15T08:51:14.073Z,4.50
2023-06-15T08:54:19.847Z,4.25
2023-06-15T08:57:21.826Z,3.60
2023-06-15T09:00:24.129Z,3.85
2023-06-15T09:03:26.094Z,3.97
2023-06-15T09:06:28.057Z,4.20
2023-06-15T09:09:31.319Z,4.57
2023-06-15T09:12:33.395Z,4.00
2023-06-15T09:15:38.048Z,3.80
2023-06-15T09:18:53.360Z,3.95
2023-06-15T09:21:57.289Z,3.60
2023-06-15T09:24:59.192Z,3.45
2023-06-15T09:28:03.571Z,3.90
2023-06-15T09:31:05.518Z,4.50
2023-06-15T09:34:13.298Z,4.32
2023-06-15T09:37:18.474Z,3.88
2023-06-15T09:40:21.194Z,3.42
2023-06-15T09:43:23.723Z,3.72
2023-06-15T09:46:29.396Z,4.25
2023-06-15T09:49:33.100Z,3.97
2023-06-15T09:52:42.529Z,3.97
2023-06-15T09:55:46.785Z,4.15
2023-06-15T09:58:50.083Z,3.83
2023-06-15T10:01:56.606Z,4.03
2023-06-15T10:04:58.938Z,3.85
2023-06-15T10:08:07.229Z,3.60
2023-06-15T10:11:14.085Z,3.50
2023-06-15T10:14:30.193Z,3.92
2023-06-15T10:17:35.320Z,3.67
2023-06-15T10:20:37.357Z,3.38
2023-06-15T10:23:42.895Z,3.90
2023-06-15T10:26:45.281Z,3.90
2023-06-15T10:30:03.177Z,3.60
2023-06-15T10:33:13.575Z,3.55
2023-06-15T10:36:28.712Z,3.55
2023-06-15T10:39:37.846Z,3.17
2023-06-15T10:42:47.564Z,3.63
2023-06-15T10:45:50.043Z,2.95
2023-06-15T10:48:55.207Z,2.80
2023-06-15T10:51:57.498Z,3.38
2023-06-15T10:55:08.911Z,3.22
2023-06-15T10:58:20.280Z,3.40
2023-06-15T11:01:27.655Z,3.90
2023-06-15T11:04:34.241Z,3.50
2023-06-15T11:07:55.556Z,3.20
2023-06-15T11:10:58.121Z,2.85
2023-06-15T11:14:07.645Z,3.30
2023-06-15T11:17:10.159Z,3.50
2023-06-15T11:20:44.396Z,2.80
2023-06-15T11:23:47.203Z,3.50
2023-06-15T11:26:52.398Z,3.15
2023-06-15T11:29:58.171Z,3.22
2023-06-15T11:33:00.429Z,3.35
2023-06-15T11:36:09.581Z,3.33
2023-06-15T11:39:22.386Z,3.28
2023-06-15T11:42:24.820Z,3.05
2023-06-15T11:45:26.904Z,2.97
2023-06-15T11:48:28.904Z,2.90
2023-06-15T11:51:31.267Z,3.75
2023-06-15T11:54:50.448Z,3.08
2023-06-15T11:57:55.001Z,2.75
2023-06-15T12:00:57.157Z,2.70
2023-06-15T12:04:05.913Z,3.22
2023-06-15T12:07:10.960Z,2.97
2023-06-15T12:10:19.781Z,2.60
2023-06-15T12:13:22.158Z,3.05
2023-06-15T12:16:24.266Z,2.58
2023-06-15T12:19:27.826Z,2.35
2023-06-15T12:22:37.415Z,2.65
2023-06-15T12:25:47.631Z,2.65
2023-06-15T12:28:50.947Z,2.65
2023-06-15T12:31:54.861Z,2.65
2023-06-15T12:34:56.900Z,2.50
2023-06-15T12:38:00.849Z,2.58
2023-06-15T12:41:03.091Z,2.28
2023-06-15T12:44:05.365Z,2.70
2023-06-15T12:47:07.909Z,2.78
2023-06-15T12:50:11.312Z,2.47
2023-06-15T12:53:13.923Z,3.00
2023-06-15T12:56:16.808Z,2.78
2023-06-15T12:59:20.602Z,2.92
2023-06-15T13:02:27.819Z,3.05
2023-06-15T13:05:31.762Z,2.78
2023-06-15T13:08:38.815Z,3.08
2023-06-15T13:11:45.792Z,2.92
2023-06-15T13:14:52.903Z,2.90
2023-06-15T13:18:00.228Z,2.90
2023-06-15T13:21:10.929Z,2.72
2023-06-15T13:24:19.830Z,3.05
2023-06-15T13:27:25.235Z,2.83
2023-06-15T13:30:31.024Z,2.88
2023-06-15T13:33:38.106Z,3.20
2023-06-15T13:36:40.601Z,3.17
2023-06-15T13:39:51.713Z,2.83
2023-06-15T13:42:56.810Z,2.60
2023-06-15T13:46:04.202Z,2.60
2023-06-15T13:49:16.772Z,2.88
2023-06-15T13:52:25.007Z,2.67
2023-06-15T13:55:31.353Z,2.95
2023-06-15T13:58:34.376Z,3.03
2023-06-15T14:01:40.098Z,3.38
2023-06-15T14:04:52.375Z,2.97
2023-06-15T14:08:04.601Z,2.47
2023-06-15T14:11:09.992Z,2.60
2023-06-15T14:14:20.295Z,2.67
2023-06-15T14:17:28.183Z,2.85
2023-06-15T14:20:36.206Z,2.40
2023-06-15T14:23:46.451Z,2.50
2023-06-15T14:26:59.656Z,2.78
2023-06-15T14:30:13.188Z,2.50
2023-06-15T14:33:19.680Z,2.70
2023-06-15T14:36:27.754Z,2.78
2023-06-15T14:39:42.384Z,2.88
2023-06-15T14:42:54.568Z,2.58
2023-06-15T14:46:05.280Z,2.60
2023-06-15T14:49:14.898Z,2.33
2023-06-15T14:52:28.085Z,2.72
2023-06-15T14:55:31.911Z,2.60
2023-06-15T14:58:34.062Z,2.78
2023-06-15T15:01:36.506Z,2.83
2023-06-15T15:04:39.960Z,2.72
2023-06-15T15:07:42.097Z,2.40
2023-06-15T15:10:44.093Z,2.50
2023-06-15T15:13:46.298Z,2.58
2023-06-15T15:16:48.414Z,2.22
2023-06-15T15:19:50.730Z,2.65
2023-06-15T15:22:52.653Z,2.72
2023-06-15T15:25:57.304Z,2.70
2023-06-15T15:28:59.611Z,2.53
2023-06-15T15:32:01.809Z,2.33
2023-06-15T15:35:04.916Z,2.40
2023-06-15T15:38:07.288Z,2.55
2023-06-15T15:41:09.241Z,2.60
2023-06-15T15:44:11.393Z,2.63
2023-06-15T15:47:13.333Z,2.65
2023-06-15T15:50:15.463Z,2.53
2023-06-15T15:53:17.537Z,2.20
2023-06-15T15:56:19.633Z,2.58
2023-06-15T15:59:23.034Z,2.30
2023-06-15T16:02:26.672Z,2.83
2023-06-15T16:05:28.798Z,2.10
2023-06-15T16:08:30.956Z,2.40
2023-06-15T16:11:32.914Z,2.33
2023-06-15T16:14:34.878Z,2.78
2023-06-15T16:17:37.259Z,2.40
2023-06-15T16:20:39.702Z,2.25
2023-06-15T16:23:41.684Z,2.17
2023-06-15T16:26:44.283Z,2.08
2023-06-15T16:29:46.879Z,2.47
2023-06-15T16:32:49.001Z,2.40
2023-06-15T16:35:51.309Z,2.40
2023-06-15T16:38:53.748Z,1.95
2023-06-15T16:41:55.839Z,2.17
2023-06-15T16:45:00.683Z,2.20
2023-06-15T16:48:04.028Z,2.35
2023-06-15T16:51:06.147Z,2.42
2023-06-15T16:54:08.187Z,2.30
2023-06-15T16:57:12.993Z,2.67
2023-06-15T17:00:16.122Z,2.50
2023-06-15T17:03:18.375Z,2.53
2023-06-15T17:06:21.018Z,2.60
2023-06-15T17:09:24.120Z,2.30
2023-06-15T17:12:27.834Z,2.47
2023-06-15T17:15:30.169Z,2.88
2023-06-15T17:18:33.516Z,2.42
2023-06-15T17:21:38.426Z,2.15
2023-06-15T17:24:40.877Z,2.75
2023-06-15T17:27:43.228Z,2.88
2023-06-15T17:30:45.778Z,2.50
2023-06-15T17:33:48.398Z,2.70
2023-06-15T17:36:50.929Z,2.95
2023-06-15T17:39:53.049Z,2.85
2023-06-15T17:42:55.592Z,2.17
2023-06-15T17:45:57.924Z,2.55
2023-06-15T17:49:00.529Z,2.33
2023-06-15T17:52:03.029Z,2.25
2023-06-15T17:55:08.154Z,2.70
2023-06-15T17:58:11.616Z,2.88
2023-06-15T18:01:16.238Z,2.60
2023-06-15T18:04:19.572Z,2.47
2023-06-15T18:07:22.339Z,2.47
2023-06-15T18:10:27.180Z,3.90
2023-06-15T18:13:30.522Z,3.10
2023-06-15T18:16:32.774Z,2.72
2023-06-15T18:19:34.846Z,2.70
2023-06-15T18:22:37.094Z,3.13
2023-06-15T18:25:39.196Z,2.50
2023-06-15T18:28:41.697Z,2.58
2023-06-15T18:31:45.549Z,3.00
2023-06-15T18:34:50.023Z,2.97
2023-06-15T18:37:53.080Z,3.00
2023-06-15T18:40:55.081Z,2.63
2023-06-15T18:43:57.500Z,2.77
2023-06-15T18:46:59.793Z,2.90
2023-06-15T18:50:01.801Z,2.60
2023-06-15T18:53:04.201Z,3.17
2023-06-15T18:56:06.799Z,2.60
2023-06-15T18:59:09.331Z,2.93
2023-06-15T19:02:11.864Z,2.70
2023-06-15T19:05:13.939Z,2.90
2023-06-15T19:08:16.017Z,2.33
2023-06-15T19:11:18.018Z,2.90
2023-06-15T19:14:20.251Z,2.87
2023-06-15T19:17:22.376Z,2.73
2023-06-15T19:20:24.765Z,3.20
2023-06-15T19:23:27.536Z,2.87
2023-06-15T19:26:29.573Z,2.80
2023-06-15T19:29:31.958Z,2.57
2023-06-15T19:32:34.414Z,3.00
2023-06-15T19:35:36.704Z,3.00
2023-06-15T19:38:49.143Z,3.00
2023-06-15T19:41:55.595Z,2.60
2023-06-15T19:44:57.573Z,3.83
2023-06-15T19:48:00.011Z,3.17
2023-06-15T19:51:02.514Z,3.00
2023-06-15T19:54:05.139Z,2.67
2023-06-15T19:57:09.360Z,2.97
2023-06-15T20:00:12.812Z,2.87
2023-06-15T20:03:15.231Z,2.90
2023-06-15T20:06:17.759Z,2.77
2023-06-15T20:09:19.689Z,2.77
2023-06-15T20:12:21.739Z,2.73
2023-06-15T20:15:24.125Z,2.70
2023-06-15T20:18:26.053Z,2.63
2023-06-15T20:21:29.441Z,2.77
2023-06-15T20:24:31.494Z,3.17
2023-06-15T20:27:33.829Z,2.67
2023-06-15T20:30:35.884Z,3.13
2023-06-15T20:33:38.960Z,3.07
2023-06-15T20:36:44.029Z,3.23
2023-06-15T20:39:47.230Z,3.03
2023-06-15T20:42:49.284Z,3.70
2023-06-15T20:45:51.628Z,3.50
2023-06-15T20:48:54.058Z,3.13
2023-06-15T20:51:56.322Z,3.40
2023-06-15T20:54:58.361Z,2.93
2023-06-15T20:58:04.722Z,3.00
2023-06-15T21:01:07.168Z,3.57
2023-06-15T21:04:09.794Z,3.40
2023-06-15T21:07:11.680Z,3.17
2023-06-15T21:10:13.671Z,3.50
2023-06-15T21:13:17.102Z,3.13
2023-06-15T21:16:19.164Z,3.00
2023-06-15T21:19:21.305Z,3.10
2023-06-15T21:22:23.391Z,3.00
2023-06-15T21:25:25.477Z,3.13
2023-06-15T21:28:27.500Z,3.40
2023-06-15T21:31:29.493Z,3.47
2023-06-15T21:34:31.511Z,3.33
2023-06-15T21:37:34.325Z,3.43
2023-06-15T21:40:36.799Z,3.53
2023-06-15T21:43:39.607Z,3.03
2023-06-15T21:46:42.333Z,3.20
2023-06-15T21:49:44.882Z,3.73
2023-06-15T21:52:49.632Z,3.70
2023-06-15T21:55:51.522Z,3.37
2023-06-15T21:58:53.469Z,3.13
2023-06-15T22:01:55.556Z,3.20
2023-06-15T22:04:57.724Z,3.00
2023-06-15T22:07:59.743Z,3.20
2023-06-15T22:11:02.333Z,2.93
2023-06-15T22:14:05.602Z,3.20
2023-06-15T22:17:07.560Z,3.20
2023-06-15T22:20:12.324Z,2.93
2023-06-15T22:23:16.248Z,3.23
2023-06-15T22:26:20.297Z,3.20
2023-06-15T22:29:22.786Z,3.70
2023-06-15T22:32:24.872Z,3.03
2023-06-15T22:35:26.851Z,3.00
2023-06-15T22:38:28.755Z,2.70
2023-06-15T22:41:30.867Z,3.30
2023-06-15T22:44:33.374Z,3.27
2023-06-15T22:47:38.507Z,3.80
2023-06-15T22:50:41.103Z,3.27
2023-06-15T22:53:43.162Z,3.10
2023-06-15T22:56:45.106Z,3.33
2023-06-15T22:59:47.252Z,3.00
2023-06-15T23:02:49.432Z,3.00
2023-06-15T23:05:51.538Z,3.30
2023-06-15T23:08:54.675Z,3.17
2023-06-15T23:11:57.742Z,2.90
2023-06-15T23:14:59.924Z,3.30
2023-06-15T23:18:03.371Z,3.07
2023-06-15T23:21:05.546Z,3.30
2023-06-15T23:24:08.605Z,3.20
2023-06-15T23:27:11.724Z,2.70
2023-06-15T23:30:14.074Z,3.23
2023-06-15T23:33:16.237Z,3.13
2023-06-15T23:36:18.242Z,3.13
2023-06-15T23:39:20.606Z,2.97
2023-06-15T23:42:22.683Z,3.63
2023-06-15T23:45:24.881Z,3.40
2023-06-15T23:48:26.989Z,3.63
2023-06-15T23:51:29.012Z,3.07
2023-06-15T23:54:31.238Z,3.00
2023-06-15T23:57:33.358Z,3.30
